createdAt,value
2019-04-26T00:00:15.906Z,0.00
2019-04-26T00:01:15.965Z,0.00
2019-04-26T00:02:16.088Z,0.00
2019-04-26T00:03:16.263Z,0.00
2019-04-26T00:04:16.298Z,0.00
2019-04-26T00:05:16.739Z,0.00
2019-04-26T00:06:16.682Z,0.00
2019-04-26T00:07:16.631Z,0.00
2019-04-26T00:08:17.945Z,0.00
2019-04-26T00:09:16.545Z,0.00
2019-04-26T00:10:16.750Z,0.00
2019-04-26T00:11:16.946Z,0.00
2019-04-26T00:12:18.538Z,0.00
2019-04-26T00:13:18.343Z,0.00
2019-04-26T00:14:18.294Z,0.00
2019-04-26T00:15:18.500Z,0.00
2019-04-26T00:16:18.897Z,0.00
2019-04-26T00:17:18.215Z,0.00
2019-04-26T00:18:19.240Z,0.00
2019-04-26T00:19:18.653Z,0.00
2019-04-26T00:20:19.153Z,0.00
2019-04-26T00:21:18.996Z,0.00
2019-04-26T00:22:19.200Z,0.00
2019-04-26T00:23:19.404Z,0.00
2019-04-26T00:24:19.630Z,0.00
2019-04-26T00:25:19.844Z,0.00
2019-04-26T00:26:20.053Z,0.00
2019-04-26T00:27:21.260Z,0.00
2019-04-26T00:28:21.180Z,0.00
2019-04-26T00:29:21.270Z,0.00
2019-04-26T00:30:21.331Z,0.00
2019-04-26T00:31:21.363Z,0.00
2019-04-26T00:32:21.450Z,0.00
2019-04-26T00:33:21.504Z,0.00
2019-04-26T00:34:22.271Z,0.00
2019-04-26T00:35:22.238Z,0.00
2019-04-26T00:36:22.940Z,0.00
2019-04-26T00:37:22.748Z,0.00
2019-04-26T00:38:22.462Z,0.00
2019-04-26T00:39:24.841Z,0.00
2019-04-26T00:40:24.251Z,0.00
2019-04-26T00:41:22.996Z,0.00
2019-04-26T00:42:23.170Z,0.00
2019-04-26T00:43:23.334Z,0.00
2019-04-26T00:44:23.520Z,0.00
2019-04-26T00:45:24.266Z,0.00
2019-04-26T00:46:24.737Z,0.00
2019-04-26T00:47:24.247Z,0.00
2019-04-26T00:48:25.274Z,0.00
2019-04-26T00:49:24.410Z,0.00
2019-04-26T00:50:25.245Z,0.00
2019-04-26T00:51:24.778Z,0.00
2019-04-26T00:52:24.950Z,0.00
2019-04-26T00:53:25.107Z,0.00
2019-04-26T00:54:25.308Z,0.00
2019-04-26T00:55:26.248Z,0.00
2019-04-26T00:56:25.656Z,0.00
2019-04-26T00:57:26.262Z,0.00
2019-04-26T00:58:26.077Z,0.00
2019-04-26T00:59:26.226Z,0.00
2019-04-26T01:00:27.257Z,0.00
2019-04-26T01:01:27.258Z,0.00
2019-04-26T01:02:26.696Z,0.00
2019-04-26T01:03:27.747Z,0.00
2019-04-26T01:04:27.034Z,0.00
2019-04-26T01:05:27.249Z,0.00
2019-04-26T01:06:27.459Z,0.00
2019-04-26T01:07:27.675Z,0.00
2019-04-26T01:08:27.861Z,0.00
2019-04-26T01:09:28.060Z,0.00
2019-04-26T01:10:28.752Z,0.00
2019-04-26T01:11:28.401Z,0.00
2019-04-26T01:12:28.616Z,0.00
2019-04-26T01:13:28.765Z,0.00
2019-04-26T01:14:28.937Z,0.00
2019-04-26T01:15:29.179Z,0.00
2019-04-26T01:16:29.325Z,0.00
2019-04-26T01:17:29.494Z,0.00
2019-04-26T01:18:30.264Z,0.00
2019-04-26T01:19:30.274Z,0.00
2019-04-26T01:20:29.944Z,0.00
2019-04-26T01:21:30.106Z,0.00
2019-04-26T01:22:30.285Z,0.00
2019-04-26T01:23:30.772Z,0.00
2019-04-26T01:24:30.670Z,0.00
2019-04-26T01:25:30.839Z,0.00
2019-04-26T01:26:30.996Z,0.00
2019-04-26T01:27:31.752Z,0.00
2019-04-26T01:28:31.272Z,0.00
2019-04-26T01:29:31.449Z,0.00
2019-04-26T01:30:31.653Z,0.00
2019-04-26T01:31:31.818Z,0.00
2019-04-26T01:32:31.956Z,0.00
2019-04-26T01:33:32.092Z,0.00
2019-04-26T01:34:32.269Z,0.00
2019-04-26T01:35:32.392Z,0.00
2019-04-26T01:36:32.538Z,0.00
2019-04-26T01:37:33.260Z,0.00
2019-04-26T01:38:33.269Z,0.00
2019-04-26T01:39:33.052Z,0.00
2019-04-26T01:40:33.276Z,0.00
2019-04-26T01:41:33.328Z,0.00
2019-04-26T01:42:33.488Z,0.00
2019-04-26T01:43:34.244Z,0.00
2019-04-26T01:44:34.268Z,0.00
2019-04-26T01:45:34.000Z,0.00
2019-04-26T01:46:34.103Z,0.00
2019-04-26T01:47:34.757Z,0.00
2019-04-26T01:48:34.367Z,0.00
2019-04-26T01:49:34.540Z,0.00
2019-04-26T01:50:35.250Z,0.00
2019-04-26T01:51:34.851Z,0.00
2019-04-26T01:52:35.756Z,0.00
2019-04-26T01:53:35.118Z,0.00
2019-04-26T01:54:35.264Z,0.00
2019-04-26T01:55:35.367Z,0.00
2019-04-26T01:56:35.511Z,0.00
2019-04-26T01:57:36.266Z,0.00
2019-04-26T01:58:36.757Z,0.00
2019-04-26T01:59:36.153Z,0.00
2019-04-26T02:00:36.297Z,0.00
2019-04-26T02:01:36.428Z,0.00
2019-04-26T02:02:36.571Z,0.00
2019-04-26T02:03:36.722Z,0.00
2019-04-26T02:04:36.919Z,0.00
2019-04-26T02:05:37.054Z,0.00
2019-04-26T02:06:37.221Z,0.00
2019-04-26T02:07:37.358Z,0.00
2019-04-26T02:08:37.515Z,0.00
2019-04-26T02:09:37.683Z,0.00
2019-04-26T02:10:37.813Z,0.00
2019-04-26T02:11:37.962Z,0.00
2019-04-26T02:12:38.753Z,0.00
2019-04-26T02:13:38.299Z,0.00
2019-04-26T02:14:38.469Z,0.00
2019-04-26T02:15:38.683Z,0.00
2019-04-26T02:16:39.775Z,0.00
2019-04-26T02:17:39.056Z,0.00
2019-04-26T02:18:39.274Z,0.00
2019-04-26T02:19:39.469Z,0.00
2019-04-26T02:20:39.646Z,0.00
2019-04-26T02:21:40.763Z,0.00
2019-04-26T02:22:40.037Z,0.00
2019-04-26T02:23:40.283Z,0.00
2019-04-26T02:24:40.339Z,0.00
2019-04-26T02:25:40.765Z,0.00
2019-04-26T02:26:40.659Z,0.00
2019-04-26T02:27:41.761Z,0.00
2019-04-26T02:28:41.064Z,0.00
2019-04-26T02:29:41.316Z,0.00
2019-04-26T02:30:41.773Z,0.00
2019-04-26T02:31:41.590Z,0.00
2019-04-26T02:32:41.779Z,0.00
2019-04-26T02:33:41.957Z,0.00
2019-04-26T02:34:42.777Z,0.00
2019-04-26T02:35:42.366Z,0.00
2019-04-26T02:36:57.066Z,0.00
2019-04-26T02:37:44.677Z,0.00
2019-04-26T02:38:43.800Z,0.00
2019-04-26T02:39:42.979Z,0.00
2019-04-26T02:40:43.766Z,0.00
2019-04-26T02:41:43.774Z,0.00
2019-04-26T02:42:43.448Z,0.00
2019-04-26T02:43:43.647Z,0.00
2019-04-26T02:44:43.854Z,0.00
2019-04-26T02:45:44.042Z,0.00
2019-04-26T02:46:44.780Z,0.00
2019-04-26T02:47:44.406Z,0.00
2019-04-26T02:48:44.560Z,0.00
2019-04-26T02:49:44.718Z,0.00
2019-04-26T02:50:45.295Z,0.00
2019-04-26T02:51:45.040Z,0.00
2019-04-26T02:52:45.226Z,0.00
2019-04-26T02:53:46.269Z,0.00
2019-04-26T02:54:46.288Z,0.00
2019-04-26T02:55:45.676Z,0.00
2019-04-26T02:56:45.847Z,0.00
2019-04-26T02:57:46.771Z,0.00
2019-04-26T02:58:46.165Z,0.00
2019-04-26T02:59:47.269Z,0.00
2019-04-26T03:00:46.513Z,0.00
2019-04-26T03:01:46.701Z,0.00
2019-04-26T03:02:46.837Z,0.00
2019-04-26T03:03:47.771Z,0.00
2019-04-26T03:04:47.186Z,0.00
2019-04-26T03:05:47.327Z,0.00
2019-04-26T03:07:02.490Z,0.00
2019-04-26T03:07:49.659Z,0.00
2019-04-26T03:08:47.887Z,0.00
2019-04-26T03:09:48.055Z,0.00
2019-04-26T03:10:48.214Z,0.00
2019-04-26T03:11:49.299Z,0.00
2019-04-26T03:12:48.574Z,0.00
2019-04-26T03:13:48.738Z,0.00
2019-04-26T03:14:48.917Z,0.00
2019-04-26T03:15:49.077Z,0.00
2019-04-26T03:16:49.235Z,0.00
2019-04-26T03:17:49.421Z,0.00
2019-04-26T03:18:50.582Z,0.00
2019-04-26T03:19:49.727Z,0.00
2019-04-26T03:20:50.763Z,0.00
2019-04-26T03:21:49.983Z,0.00
2019-04-26T03:22:50.144Z,0.00
2019-04-26T03:23:57.486Z,0.00
2019-04-26T03:24:52.427Z,0.00
2019-04-26T03:25:51.285Z,0.00
2019-04-26T03:26:50.757Z,0.00
2019-04-26T03:27:50.889Z,0.00
2019-04-26T03:28:51.091Z,0.00
2019-04-26T03:29:51.784Z,0.00
2019-04-26T03:30:53.079Z,0.00
2019-04-26T03:31:55.067Z,0.00
2019-04-26T03:32:54.098Z,0.00
2019-04-26T03:33:54.933Z,0.00
2019-04-26T03:34:55.229Z,0.00
2019-04-26T03:35:57.513Z,0.00
2019-04-26T03:36:54.494Z,0.00
2019-04-26T03:37:53.278Z,0.00
2019-04-26T03:38:52.939Z,0.00
2019-04-26T03:39:53.069Z,0.00
2019-04-26T03:40:53.782Z,0.00
2019-04-26T03:41:53.413Z,0.00
2019-04-26T03:42:53.541Z,0.00
2019-04-26T03:43:53.689Z,0.00
2019-04-26T03:44:53.862Z,0.00
2019-04-26T03:45:53.985Z,0.00
2019-04-26T03:46:54.108Z,0.00
2019-04-26T03:47:56.279Z,0.00
2019-04-26T03:48:54.601Z,0.00
2019-04-26T03:49:55.008Z,0.00
2019-04-26T03:50:54.958Z,0.00
2019-04-26T03:51:55.783Z,0.00
2019-04-26T03:52:55.283Z,0.00
2019-04-26T03:53:55.425Z,0.00
2019-04-26T03:54:55.598Z,0.00
2019-04-26T03:55:55.745Z,0.00
2019-04-26T03:56:55.891Z,0.00
2019-04-26T03:57:56.784Z,0.00
2019-04-26T03:58:56.174Z,0.00
2019-04-26T03:59:56.382Z,0.00
2019-04-26T04:00:56.545Z,0.00
2019-04-26T04:01:57.698Z,0.00
2019-04-26T04:02:56.944Z,0.00
2019-04-26T04:03:57.772Z,0.00
2019-04-26T04:04:57.795Z,0.00
2019-04-26T04:05:57.454Z,0.00
2019-04-26T04:07:04.888Z,0.00
2019-04-26T04:07:59.734Z,0.00
2019-04-26T04:08:57.961Z,0.00
2019-04-26T04:09:58.116Z,0.00
2019-04-26T04:10:59.298Z,0.00
2019-04-26T04:12:11.102Z,0.00
2019-04-26T04:13:00.545Z,0.00
2019-04-26T04:13:58.683Z,0.00
2019-04-26T04:14:58.976Z,0.00
2019-04-26T04:15:59.289Z,0.00
2019-04-26T04:16:59.194Z,0.00
2019-04-26T04:17:59.350Z,0.00
2019-04-26T04:18:59.496Z,0.00
2019-04-26T04:19:59.628Z,0.00
2019-04-26T04:20:59.913Z,0.00
2019-04-26T04:22:00.054Z,0.00
2019-04-26T04:23:00.183Z,0.00
2019-04-26T04:24:00.358Z,0.00
2019-04-26T04:25:00.502Z,0.00
2019-04-26T04:26:00.661Z,0.00
2019-04-26T04:27:00.821Z,0.00
2019-04-26T04:28:03.441Z,0.00
2019-04-26T04:29:02.137Z,0.00
2019-04-26T04:30:01.293Z,0.00
2019-04-26T04:31:01.488Z,0.00
2019-04-26T04:32:01.656Z,0.00
2019-04-26T04:33:01.836Z,0.00
2019-04-26T04:34:01.978Z,5.62
2019-04-26T04:35:06.102Z,5.62
2019-04-26T04:36:02.352Z,5.62
2019-04-26T04:37:02.494Z,5.62
2019-04-26T04:38:09.209Z,5.62
2019-04-26T04:39:12.500Z,5.62
2019-04-26T04:40:05.077Z,5.62
2019-04-26T04:41:03.321Z,5.62
2019-04-26T04:42:03.473Z,5.62
2019-04-26T04:43:03.942Z,5.62
2019-04-26T04:44:03.774Z,5.62
2019-04-26T04:45:03.928Z,5.62
2019-04-26T04:46:04.292Z,5.62
2019-04-26T04:47:22.215Z,5.62
2019-04-26T04:48:05.385Z,5.62
2019-04-26T04:49:04.488Z,11.25
2019-04-26T04:50:04.656Z,11.25
2019-04-26T04:51:04.844Z,16.88
2019-04-26T04:52:04.937Z,16.88
2019-04-26T04:53:05.091Z,16.88
2019-04-26T04:54:05.242Z,16.88
2019-04-26T04:55:08.000Z,16.88
2019-04-26T04:56:06.592Z,16.88
2019-04-26T04:57:05.716Z,16.88
2019-04-26T04:58:05.866Z,22.50
2019-04-26T04:59:06.009Z,22.50
2019-04-26T05:00:06.784Z,22.50
2019-04-26T05:01:06.398Z,22.50
2019-04-26T05:02:06.573Z,22.50
2019-04-26T05:03:06.737Z,22.50
2019-04-26T05:04:06.875Z,22.50
2019-04-26T05:05:07.018Z,22.50
2019-04-26T05:06:07.982Z,22.50
2019-04-26T05:07:08.331Z,22.50
2019-04-26T05:08:07.810Z,22.50
2019-04-26T05:09:07.698Z,22.50
2019-04-26T05:10:07.848Z,22.50
2019-04-26T05:11:09.039Z,22.50
2019-04-26T05:12:08.291Z,22.50
2019-04-26T05:13:10.295Z,22.50
2019-04-26T05:14:08.536Z,22.50
2019-04-26T05:15:08.693Z,22.50
2019-04-26T05:16:08.888Z,22.50
2019-04-26T05:17:09.028Z,22.50
2019-04-26T05:18:09.195Z,22.50
2019-04-26T05:19:09.381Z,22.50
2019-04-26T05:20:09.553Z,22.50
2019-04-26T05:21:09.717Z,22.50
2019-04-26T05:22:09.854Z,16.88
2019-04-26T05:23:10.795Z,16.88
2019-04-26T05:24:10.163Z,16.88
2019-04-26T05:25:11.297Z,16.88
2019-04-26T05:26:10.442Z,16.88
2019-04-26T05:27:10.613Z,22.50
2019-04-26T05:28:10.784Z,22.50
2019-04-26T05:29:10.978Z,22.50
2019-04-26T05:30:11.128Z,22.50
2019-04-26T05:31:11.281Z,22.50
2019-04-26T05:32:11.805Z,22.50
2019-04-26T05:33:11.568Z,22.50
2019-04-26T05:34:11.686Z,28.12
2019-04-26T05:35:11.941Z,28.12
2019-04-26T05:36:12.050Z,33.75
2019-04-26T05:37:12.794Z,33.75
2019-04-26T05:38:18.405Z,39.38
2019-04-26T05:39:14.576Z,39.38
2019-04-26T05:40:12.792Z,39.38
2019-04-26T05:41:13.795Z,39.38
2019-04-26T05:42:13.251Z,33.75
2019-04-26T05:43:13.500Z,33.75
2019-04-26T05:44:13.624Z,33.75
2019-04-26T05:45:13.902Z,28.12
2019-04-26T05:46:14.027Z,22.50
2019-04-26T05:47:14.174Z,22.50
2019-04-26T05:48:14.327Z,16.88
2019-04-26T05:49:14.461Z,16.88
2019-04-26T05:50:14.602Z,16.88
2019-04-26T05:51:14.749Z,16.88
2019-04-26T05:52:14.917Z,22.50
2019-04-26T05:53:15.057Z,22.50
2019-04-26T05:54:15.178Z,28.12
2019-04-26T05:55:15.313Z,33.75
2019-04-26T05:56:16.286Z,39.38
2019-04-26T05:57:15.775Z,45.00
2019-04-26T05:58:15.895Z,45.00
2019-04-26T05:59:16.036Z,45.00
2019-04-26T06:00:16.186Z,45.00
2019-04-26T06:01:17.299Z,50.62
2019-04-26T06:02:16.549Z,50.62
2019-04-26T06:03:17.309Z,56.25
2019-04-26T06:04:16.787Z,56.25
2019-04-26T06:05:17.791Z,61.88
2019-04-26T06:06:17.799Z,61.88
2019-04-26T06:07:17.319Z,67.50
2019-04-26T06:08:17.453Z,73.12
2019-04-26T06:09:19.307Z,73.12
2019-04-26T06:10:18.303Z,78.75
2019-04-26T06:11:17.925Z,84.38
2019-04-26T06:12:18.084Z,84.38
2019-04-26T06:13:18.230Z,90.00
2019-04-26T06:14:18.390Z,90.00
2019-04-26T06:15:18.540Z,95.62
2019-04-26T06:16:19.302Z,95.62
2019-04-26T06:17:19.006Z,90.00
2019-04-26T06:18:19.819Z,90.00
2019-04-26T06:19:20.296Z,90.00
2019-04-26T06:20:23.118Z,90.00
2019-04-26T06:21:21.295Z,90.00
2019-04-26T06:22:20.322Z,95.62
2019-04-26T06:23:20.111Z,95.62
2019-04-26T06:24:20.810Z,106.88
2019-04-26T06:25:20.445Z,118.12
2019-04-26T06:26:20.601Z,129.38
2019-04-26T06:27:20.728Z,135.00
2019-04-26T06:28:20.923Z,140.62
2019-04-26T06:29:21.114Z,140.62
2019-04-26T06:30:21.274Z,146.25
2019-04-26T06:31:21.408Z,151.88
2019-04-26T06:32:22.315Z,157.50
2019-04-26T06:33:21.726Z,157.50
2019-04-26T06:34:21.859Z,151.88
2019-04-26T06:35:22.814Z,140.62
2019-04-26T06:36:22.172Z,135.00
2019-04-26T06:37:22.411Z,123.75
2019-04-26T06:38:22.603Z,118.12
2019-04-26T06:39:22.768Z,112.50
2019-04-26T06:40:23.313Z,101.25
2019-04-26T06:41:23.820Z,95.62
2019-04-26T06:42:23.320Z,90.00
2019-04-26T06:43:23.467Z,90.00
2019-04-26T06:44:23.603Z,90.00
2019-04-26T06:45:24.304Z,90.00
2019-04-26T06:46:23.935Z,90.00
2019-04-26T06:47:24.060Z,90.00
2019-04-26T06:48:24.814Z,90.00
2019-04-26T06:49:25.299Z,90.00
2019-04-26T06:50:24.721Z,84.38
2019-04-26T06:51:25.214Z,84.38
2019-04-26T06:52:25.982Z,90.00
2019-04-26T06:53:25.800Z,90.00
2019-04-26T06:54:25.413Z,95.62
2019-04-26T06:55:25.803Z,101.25
2019-04-26T06:56:25.691Z,95.62
2019-04-26T06:57:25.837Z,101.25
2019-04-26T06:58:25.971Z,101.25
2019-04-26T06:59:35.778Z,106.88
2019-04-26T07:00:28.327Z,106.88
2019-04-26T07:01:26.822Z,106.88
2019-04-26T07:02:26.663Z,106.88
2019-04-26T07:03:26.906Z,106.88
2019-04-26T07:04:27.064Z,112.50
2019-04-26T07:05:27.804Z,112.50
2019-04-26T07:06:34.985Z,118.12
2019-04-26T07:07:29.656Z,123.75
2019-04-26T07:08:27.864Z,129.38
2019-04-26T07:09:28.812Z,135.00
2019-04-26T07:10:28.167Z,140.62
2019-04-26T07:11:28.360Z,140.62
2019-04-26T07:12:29.530Z,135.00
2019-04-26T07:13:29.315Z,123.75
2019-04-26T07:14:28.823Z,112.50
2019-04-26T07:15:29.838Z,112.50
2019-04-26T07:16:29.107Z,106.88
2019-04-26T07:17:29.248Z,101.25
2019-04-26T07:18:30.312Z,106.88
2019-04-26T07:19:29.549Z,106.88
2019-04-26T07:20:29.827Z,112.50
2019-04-26T07:21:30.326Z,112.50
2019-04-26T07:22:35.582Z,106.88
2019-04-26T07:23:32.326Z,106.88
2019-04-26T07:24:31.553Z,101.25
2019-04-26T07:25:30.680Z,101.25
2019-04-26T07:26:30.865Z,101.25
2019-04-26T07:27:31.027Z,101.25
2019-04-26T07:28:31.209Z,95.62
2019-04-26T07:29:31.824Z,101.25
2019-04-26T07:30:31.876Z,101.25
2019-04-26T07:31:32.799Z,101.25
2019-04-26T07:32:32.072Z,101.25
2019-04-26T07:33:32.229Z,101.25
2019-04-26T07:34:33.316Z,101.25
2019-04-26T07:35:32.552Z,101.25
2019-04-26T07:36:33.303Z,95.62
2019-04-26T07:37:33.319Z,95.62
2019-04-26T07:38:32.984Z,95.62
2019-04-26T07:39:33.805Z,101.25
2019-04-26T07:40:34.303Z,101.25
2019-04-26T07:41:34.300Z,101.25
2019-04-26T07:42:34.324Z,101.25
2019-04-26T07:43:33.986Z,101.25
2019-04-26T07:44:34.174Z,101.25
2019-04-26T07:45:34.362Z,95.62
2019-04-26T07:46:34.518Z,90.00
2019-04-26T07:47:35.704Z,78.75
2019-04-26T07:48:34.886Z,73.12
2019-04-26T07:49:34.987Z,67.50
2019-04-26T07:50:35.162Z,61.88
2019-04-26T07:51:36.312Z,67.50
2019-04-26T07:52:35.473Z,67.50
2019-04-26T07:53:35.829Z,73.12
2019-04-26T07:54:35.880Z,78.75
2019-04-26T07:55:36.803Z,78.75
2019-04-26T07:56:36.186Z,78.75
2019-04-26T07:57:36.371Z,84.38
2019-04-26T07:58:36.828Z,90.00
2019-04-26T07:59:36.717Z,90.00
2019-04-26T08:00:44.623Z,101.25
2019-04-26T08:01:39.065Z,106.88
2019-04-26T08:02:37.192Z,112.50
2019-04-26T08:03:37.834Z,118.12
2019-04-26T08:04:37.492Z,118.12
2019-04-26T08:05:37.655Z,118.12
2019-04-26T08:06:38.810Z,123.75
2019-04-26T08:07:37.962Z,123.75
2019-04-26T08:08:38.126Z,129.38
2019-04-26T08:09:38.272Z,135.00
2019-04-26T08:10:38.419Z,129.38
2019-04-26T08:11:38.838Z,129.38
2019-04-26T08:12:38.748Z,140.62
2019-04-26T08:13:39.331Z,146.25
2019-04-26T08:14:39.096Z,157.50
2019-04-26T08:15:39.333Z,174.38
2019-04-26T08:16:39.491Z,180.00
2019-04-26T08:17:39.654Z,174.38
2019-04-26T08:18:39.865Z,174.38
2019-04-26T08:19:40.056Z,174.38
2019-04-26T08:20:40.228Z,180.00
2019-04-26T08:21:42.596Z,168.75
2019-04-26T08:22:42.517Z,157.50
2019-04-26T08:23:42.197Z,151.88
2019-04-26T08:24:41.917Z,157.50
2019-04-26T08:25:41.176Z,168.75
2019-04-26T08:26:41.345Z,168.75
2019-04-26T08:27:42.318Z,157.50
2019-04-26T08:28:41.709Z,151.88
2019-04-26T08:29:42.816Z,157.50
2019-04-26T08:30:44.905Z,168.75
2019-04-26T08:31:43.835Z,174.38
2019-04-26T08:32:43.332Z,174.38
2019-04-26T08:33:48.420Z,174.38
2019-04-26T08:34:45.834Z,180.00
2019-04-26T08:35:44.441Z,191.25
2019-04-26T08:36:45.215Z,208.12
2019-04-26T08:37:43.324Z,225.00
2019-04-26T08:38:43.485Z,241.88
2019-04-26T08:39:45.536Z,253.12
2019-04-26T08:40:45.829Z,264.38
2019-04-26T08:41:44.085Z,270.00
2019-04-26T08:42:44.261Z,281.25
2019-04-26T08:43:44.425Z,275.62
2019-04-26T08:44:44.627Z,275.62
2019-04-26T08:46:01.494Z,270.00
2019-04-26T08:46:45.932Z,264.38
2019-04-26T08:47:45.913Z,264.38
2019-04-26T08:48:46.333Z,270.00
2019-04-26T08:49:45.470Z,275.62
2019-04-26T08:50:46.048Z,270.00
2019-04-26T08:51:46.801Z,275.62
2019-04-26T08:52:46.825Z,270.00
2019-04-26T08:53:46.104Z,264.38
2019-04-26T08:54:46.270Z,270.00
2019-04-26T08:55:46.422Z,275.62
2019-04-26T08:56:46.588Z,286.88
2019-04-26T08:57:46.726Z,292.50
2019-04-26T08:58:46.883Z,309.38
2019-04-26T08:59:47.072Z,303.75
2019-04-26T09:00:47.222Z,309.38
2019-04-26T09:01:47.377Z,315.00
2019-04-26T09:02:47.528Z,309.38
2019-04-26T09:03:47.733Z,298.12
2019-04-26T09:04:47.881Z,275.62
2019-04-26T09:05:49.942Z,270.00
2019-04-26T09:06:49.822Z,264.38
2019-04-26T09:07:49.329Z,258.75
2019-04-26T09:08:49.333Z,247.50
2019-04-26T09:09:57.102Z,236.25
2019-04-26T09:10:51.101Z,230.62
2019-04-26T09:11:59.165Z,219.38
2019-04-26T09:12:51.423Z,208.12
2019-04-26T09:13:50.322Z,185.62
2019-04-26T09:14:49.734Z,168.75
2019-04-26T09:15:49.903Z,146.25
2019-04-26T09:16:50.903Z,146.25
2019-04-26T09:17:50.292Z,135.00
2019-04-26T09:18:54.184Z,135.00
2019-04-26T09:19:52.632Z,135.00
2019-04-26T09:20:50.869Z,129.38
2019-04-26T09:21:51.792Z,129.38
2019-04-26T09:22:52.240Z,123.75
2019-04-26T09:23:52.328Z,123.75
2019-04-26T09:24:55.153Z,129.38
2019-04-26T09:25:59.078Z,146.25
2019-04-26T09:26:54.831Z,157.50
2019-04-26T09:27:53.195Z,174.38
2019-04-26T09:28:53.027Z,191.25
2019-04-26T09:29:53.505Z,191.25
2019-04-26T09:30:52.762Z,185.62
2019-04-26T09:31:54.600Z,191.25
2019-04-26T09:32:54.128Z,202.50
2019-04-26T09:33:53.327Z,213.75
2019-04-26T09:34:54.342Z,219.38
2019-04-26T09:35:53.853Z,219.38
2019-04-26T09:36:54.844Z,202.50
2019-04-26T09:37:54.129Z,191.25
2019-04-26T09:38:54.297Z,185.62
2019-04-26T09:39:54.509Z,196.88
2019-04-26T09:40:56.208Z,213.75
2019-04-26T09:41:56.838Z,225.00
2019-04-26T09:42:55.831Z,225.00
2019-04-26T09:43:58.942Z,208.12
2019-04-26T09:44:56.982Z,191.25
2019-04-26T09:45:56.863Z,180.00
2019-04-26T09:46:56.840Z,185.62
2019-04-26T09:47:56.099Z,191.25
2019-04-26T09:48:56.301Z,191.25
2019-04-26T09:49:56.553Z,202.50
2019-04-26T09:50:56.795Z,225.00
2019-04-26T09:51:56.891Z,253.12
2019-04-26T09:52:58.312Z,258.75
2019-04-26T09:53:58.311Z,258.75
2019-04-26T09:54:57.489Z,270.00
2019-04-26T09:55:57.703Z,281.25
2019-04-26T09:56:57.918Z,286.88
2019-04-26T09:57:58.176Z,286.88
2019-04-26T09:59:01.498Z,298.12
2019-04-26T10:00:00.497Z,303.75
2019-04-26T10:00:58.752Z,309.38
2019-04-26T10:01:59.461Z,326.25
2019-04-26T10:03:00.137Z,331.88
2019-04-26T10:03:59.253Z,343.12
2019-04-26T10:04:59.456Z,337.50
2019-04-26T10:05:59.591Z,331.88
2019-04-26T10:07:03.211Z,331.88
2019-04-26T10:08:00.828Z,315.00
2019-04-26T10:09:00.054Z,286.88
2019-04-26T10:10:00.965Z,253.12
2019-04-26T10:11:01.400Z,247.50
2019-04-26T10:12:00.557Z,230.62
2019-04-26T10:13:00.703Z,208.12
2019-04-26T10:14:00.843Z,202.50
2019-04-26T10:15:01.844Z,185.62
2019-04-26T10:16:02.601Z,180.00
2019-04-26T10:17:02.406Z,191.25
2019-04-26T10:18:01.533Z,202.50
2019-04-26T10:19:01.680Z,196.88
2019-04-26T10:20:01.819Z,191.25
2019-04-26T10:21:01.971Z,185.62
2019-04-26T10:22:02.134Z,185.62
2019-04-26T10:23:02.252Z,185.62
2019-04-26T10:24:02.386Z,180.00
2019-04-26T10:25:08.069Z,174.38
2019-04-26T10:26:04.681Z,168.75
2019-04-26T10:27:03.302Z,157.50
2019-04-26T10:28:03.980Z,163.12
2019-04-26T10:29:03.106Z,185.62
2019-04-26T10:30:08.867Z,202.50
2019-04-26T10:31:05.418Z,219.38
2019-04-26T10:32:03.660Z,236.25
2019-04-26T10:33:03.884Z,247.50
2019-04-26T10:34:07.826Z,258.75
2019-04-26T10:35:05.201Z,253.12
2019-04-26T10:36:04.324Z,247.50
2019-04-26T10:37:06.160Z,253.12
2019-04-26T10:38:05.731Z,241.88
2019-04-26T10:39:04.886Z,230.62
2019-04-26T10:40:05.116Z,219.38
2019-04-26T10:41:05.361Z,208.12
2019-04-26T10:42:06.351Z,213.75
2019-04-26T10:43:05.745Z,219.38
2019-04-26T10:44:06.360Z,225.00
2019-04-26T10:45:06.155Z,236.25
2019-04-26T10:46:06.351Z,241.88
2019-04-26T10:47:07.350Z,247.50
2019-04-26T10:48:09.521Z,253.12
2019-04-26T10:49:09.687Z,258.75
2019-04-26T10:50:08.120Z,270.00
2019-04-26T10:51:08.886Z,275.62
2019-04-26T10:52:11.959Z,275.62
2019-04-26T10:53:09.358Z,281.25
2019-04-26T10:54:28.744Z,281.25
2019-04-26T10:55:12.222Z,281.25
2019-04-26T10:56:09.890Z,286.88
2019-04-26T10:57:09.246Z,298.12
2019-04-26T10:58:08.388Z,309.38
2019-04-26T10:59:09.756Z,326.25
2019-04-26T11:00:09.804Z,354.38
2019-04-26T11:01:08.981Z,376.88
2019-04-26T11:02:09.161Z,410.62
2019-04-26T11:03:09.361Z,444.38
2019-04-26T11:04:09.540Z,472.50
2019-04-26T11:05:11.625Z,495.00
2019-04-26T11:06:11.913Z,517.50
2019-04-26T11:07:10.041Z,540.00
2019-04-26T11:08:10.212Z,556.88
2019-04-26T11:09:11.352Z,579.38
2019-04-26T11:10:10.617Z,585.00
2019-04-26T11:11:10.865Z,568.12
2019-04-26T11:12:11.029Z,562.50
2019-04-26T11:13:11.206Z,618.75
2019-04-26T11:14:12.353Z,652.50
2019-04-26T11:15:11.501Z,663.75
2019-04-26T11:16:11.871Z,675.00
2019-04-26T11:17:16.164Z,669.38
2019-04-26T11:18:13.052Z,742.50
2019-04-26T11:19:12.187Z,770.62
2019-04-26T11:20:12.357Z,855.00
2019-04-26T11:21:16.437Z,883.12
2019-04-26T11:22:14.726Z,855.00
2019-04-26T11:23:12.919Z,770.62
2019-04-26T11:24:15.175Z,776.25
2019-04-26T11:25:15.268Z,742.50
2019-04-26T11:26:13.534Z,680.62
2019-04-26T11:27:13.692Z,573.75
2019-04-26T11:28:17.218Z,534.38
2019-04-26T11:29:15.081Z,523.12
2019-04-26T11:30:20.618Z,506.25
2019-04-26T11:31:16.367Z,511.88
2019-04-26T11:32:15.465Z,495.00
2019-04-26T11:33:14.657Z,489.38
2019-04-26T11:34:14.799Z,483.75
2019-04-26T11:35:14.946Z,483.75
2019-04-26T11:36:15.108Z,500.62
2019-04-26T11:37:17.783Z,511.88
2019-04-26T11:38:16.544Z,506.25
2019-04-26T11:39:15.687Z,500.62
2019-04-26T11:40:16.020Z,478.12
2019-04-26T11:41:18.872Z,438.75
2019-04-26T11:42:16.860Z,421.88
2019-04-26T11:43:19.570Z,399.38
2019-04-26T11:44:16.538Z,399.38
2019-04-26T11:45:16.735Z,405.00
2019-04-26T11:46:16.796Z,371.25
2019-04-26T11:47:16.932Z,348.75
2019-04-26T11:48:17.097Z,343.12
2019-04-26T11:49:17.862Z,337.50
2019-04-26T11:50:17.816Z,354.38
2019-04-26T11:51:17.550Z,399.38
2019-04-26T11:52:17.719Z,393.75
2019-04-26T11:53:17.865Z,365.62
2019-04-26T11:54:20.750Z,365.62
2019-04-26T11:55:19.864Z,382.50
2019-04-26T11:56:18.414Z,360.00
2019-04-26T11:57:18.610Z,354.38
2019-04-26T11:58:22.660Z,348.75
2019-04-26T11:59:19.971Z,337.50
2019-04-26T12:00:19.183Z,343.12
2019-04-26T12:01:19.371Z,337.50
2019-04-26T12:02:19.561Z,315.00
2019-04-26T12:03:21.114Z,309.38
2019-04-26T12:04:20.902Z,298.12
2019-04-26T12:05:20.844Z,286.88
2019-04-26T12:06:21.386Z,309.38
2019-04-26T12:07:21.508Z,303.75
2019-04-26T12:08:20.864Z,286.88
2019-04-26T12:09:20.807Z,281.25
2019-04-26T12:10:21.875Z,275.62
2019-04-26T12:11:31.529Z,258.75
2019-04-26T12:12:22.292Z,253.12
2019-04-26T12:13:24.965Z,253.12
2019-04-26T12:14:21.619Z,253.12
2019-04-26T12:15:30.151Z,253.12
2019-04-26T12:16:23.958Z,270.00
2019-04-26T12:17:22.081Z,286.88
2019-04-26T12:18:22.295Z,315.00
2019-04-26T12:19:22.377Z,337.50
2019-04-26T12:20:26.964Z,348.75
2019-04-26T12:21:24.359Z,365.62
2019-04-26T12:22:23.840Z,388.12
2019-04-26T12:23:23.408Z,399.38
2019-04-26T12:24:25.323Z,399.38
2019-04-26T12:25:25.332Z,410.62
2019-04-26T12:26:24.571Z,427.50
2019-04-26T12:27:26.551Z,455.62
2019-04-26T12:28:24.878Z,450.00
2019-04-26T12:29:24.387Z,416.25
2019-04-26T12:30:26.717Z,388.12
2019-04-26T12:31:25.920Z,405.00
2019-04-26T12:32:24.436Z,405.00
2019-04-26T12:33:24.585Z,371.25
2019-04-26T12:34:24.755Z,348.75
2019-04-26T12:35:24.915Z,315.00
2019-04-26T12:36:25.385Z,320.62
2019-04-26T12:37:25.303Z,337.50
2019-04-26T12:38:28.464Z,343.12
2019-04-26T12:39:26.674Z,360.00
2019-04-26T12:40:25.795Z,371.25
2019-04-26T12:41:39.772Z,393.75
2019-04-26T12:42:28.052Z,405.00
2019-04-26T12:43:26.321Z,427.50
2019-04-26T12:44:26.499Z,438.75
2019-04-26T12:45:26.637Z,438.75
2019-04-26T12:46:28.628Z,399.38
2019-04-26T12:47:30.505Z,393.75
2019-04-26T12:48:27.128Z,405.00
2019-04-26T12:49:27.276Z,438.75
2019-04-26T12:50:29.393Z,478.12
2019-04-26T12:51:29.662Z,399.38
2019-04-26T12:52:28.387Z,399.38